sensor_id;sensor_type;location;lat;lon;timestamp;temperature;humidity
51559;DHT22;61650;48.882;2.092;2023-03-01T00:00:15;-1.50;60.60
51559;DHT22;61650;48.882;2.092;2023-03-01T00:02:40;-1.60;61.90
51559;DHT22;61650;48.882;2.092;2023-03-01T00:05:06;-1.70;61.90
51559;DHT22;61650;48.882;2.092;2023-03-01T00:07:33;-1.80;62.40
51559;DHT22;61650;48.882;2.092;2023-03-01T00:09:58;-1.90;62.70
51559;DHT22;61650;48.882;2.092;2023-03-01T00:12:24;-1.80;62.20
51559;DHT22;61650;48.882;2.092;2023-03-01T00:14:49;-1.80;63.10
51559;DHT22;61650;48.882;2.092;2023-03-01T00:17:15;-1.90;63.70
51559;DHT22;61650;48.882;2.092;2023-03-01T00:19:41;-2.00;63.40
51559;DHT22;61650;48.882;2.092;2023-03-01T00:22:06;-1.90;63.20
51559;DHT22;61650;48.882;2.092;2023-03-01T00:24:32;-1.90;64.00
51559;DHT22;61650;48.882;2.092;2023-03-01T00:26:57;-2.00;63.80
51559;DHT22;61650;48.882;2.092;2023-03-01T00:29:24;-2.00;63.40
51559;DHT22;61650;48.882;2.092;2023-03-01T00:31:50;-1.90;63.30
51559;DHT22;61650;48.882;2.092;2023-03-01T00:34:16;-1.90;62.60
51559;DHT22;61650;48.882;2.092;2023-03-01T00:36:41;-1.90;63.00
51559;DHT22;61650;48.882;2.092;2023-03-01T00:39:12;-1.90;62.80
51559;DHT22;61650;48.882;2.092;2023-03-01T00:41:38;-1.70;62.50
51559;DHT22;61650;48.882;2.092;2023-03-01T00:44:05;-1.70;62.00
51559;DHT22;61650;48.882;2.092;2023-03-01T00:46:31;-1.60;61.70
51559;DHT22;61650;48.882;2.092;2023-03-01T00:48:57;-1.70;61.70
51559;DHT22;61650;48.882;2.092;2023-03-01T00:51:25;-1.60;61.70
51559;DHT22;61650;48.882;2.092;2023-03-01T00:53:53;-1.60;61.40
51559;DHT22;61650;48.882;2.092;2023-03-01T00:56:19;-1.50;61.30
51559;DHT22;61650;48.882;2.092;2023-03-01T00:58:45;-1.50;61.10
51559;DHT22;61650;48.882;2.092;2023-03-01T01:01:15;-1.60;60.90
51559;DHT22;61650;48.882;2.092;2023-03-01T01:03:55;-1.60;61.50
51559;DHT22;61650;48.882;2.092;2023-03-01T01:06:23;-1.70;61.80
51559;DHT22;61650;48.882;2.092;2023-03-01T01:08:51;-1.80;62.00
51559;DHT22;61650;48.882;2.092;2023-03-01T01:11:18;-1.80;62.00
51559;DHT22;61650;48.882;2.092;2023-03-01T01:13:45;-1.90;62.60
51559;DHT22;61650;48.882;2.092;2023-03-01T01:16:12;-2.00;62.60
51559;DHT22;61650;48.882;2.092;2023-03-01T01:18:38;-2.00;63.30
51559;DHT22;61650;48.882;2.092;2023-03-01T01:21:06;-2.10;63.90
51559;DHT22;61650;48.882;2.092;2023-03-01T01:23:32;-2.10;64.30
51559;DHT22;61650;48.882;2.092;2023-03-01T01:26:02;-2.10;64.90
51559;DHT22;61650;48.882;2.092;2023-03-01T01:28:28;-2.10;65.00
51559;DHT22;61650;48.882;2.092;2023-03-01T01:30:54;-2.20;65.20
51559;DHT22;61650;48.882;2.092;2023-03-01T01:33:19;-2.20;65.20
51559;DHT22;61650;48.882;2.092;2023-03-01T01:35:45;-2.30;65.30
51559;DHT22;61650;48.882;2.092;2023-03-01T01:38:11;-2.30;65.50
51559;DHT22;61650;48.882;2.092;2023-03-01T01:40:43;-2.40;66.00
51559;DHT22;61650;48.882;2.092;2023-03-01T01:43:29;-2.30;65.90
51559;DHT22;61650;48.882;2.092;2023-03-01T01:45:59;-2.40;66.40
51559;DHT22;61650;48.882;2.092;2023-03-01T01:48:32;-2.50;66.80
51559;DHT22;61650;48.882;2.092;2023-03-01T01:51:09;-2.50;66.90
51559;DHT22;61650;48.882;2.092;2023-03-01T01:53:37;-2.50;67.20
51559;DHT22;61650;48.882;2.092;2023-03-01T01:56:07;-2.50;66.90
51559;DHT22;61650;48.882;2.092;2023-03-01T01:58:34;-2.50;67.00
51559;DHT22;61650;48.882;2.092;2023-03-01T02:01:01;-2.50;67.30
51559;DHT22;61650;48.882;2.092;2023-03-01T02:03:31;-2.50;67.30
51559;DHT22;61650;48.882;2.092;2023-03-01T02:06:11;-2.60;67.50
51559;DHT22;61650;48.882;2.092;2023-03-01T02:08:39;-2.60;67.10
51559;DHT22;61650;48.882;2.092;2023-03-01T02:11:07;-2.60;67.40
51559;DHT22;61650;48.882;2.092;2023-03-01T02:13:33;-2.60;67.90
51559;DHT22;61650;48.882;2.092;2023-03-01T02:16:03;-2.70;67.90
51559;DHT22;61650;48.882;2.092;2023-03-01T02:18:29;-2.70;67.90
51559;DHT22;61650;48.882;2.092;2023-03-01T02:23:42;-2.50;67.20
51559;DHT22;61650;48.882;2.092;2023-03-01T02:26:18;-2.60;66.90
51559;DHT22;61650;48.882;2.092;2023-03-01T02:28:45;-2.60;67.80
51559;DHT22;61650;48.882;2.092;2023-03-01T02:31:16;-2.70;67.70
51559;DHT22;61650;48.882;2.092;2023-03-01T02:34:01;-2.80;67.70
51559;DHT22;61650;48.882;2.092;2023-03-01T02:36:38;-2.70;68.10
51559;DHT22;61650;48.882;2.092;2023-03-01T02:39:06;-2.80;68.30
51559;DHT22;61650;48.882;2.092;2023-03-01T02:41:35;-2.80;68.20
51559;DHT22;61650;48.882;2.092;2023-03-01T02:44:03;-2.70;68.40
51559;DHT22;61650;48.882;2.092;2023-03-01T02:46:28;-2.70;68.20
51559;DHT22;61650;48.882;2.092;2023-03-01T02:48:58;-2.80;68.60
51559;DHT22;61650;48.882;2.092;2023-03-01T02:56:39;-2.90;68.70
51559;DHT22;61650;48.882;2.092;2023-03-01T02:59:06;-2.90;69.00
51559;DHT22;61650;48.882;2.092;2023-03-01T03:01:32;-2.80;68.40
51559;DHT22;61650;48.882;2.092;2023-03-01T03:04:09;-2.80;68.50
51559;DHT22;61650;48.882;2.092;2023-03-01T03:06:35;-2.80;68.40
51559;DHT22;61650;48.882;2.092;2023-03-01T03:09:02;-2.90;68.80
51559;DHT22;61650;48.882;2.092;2023-03-01T03:11:28;-2.90;68.80
51559;DHT22;61650;48.882;2.092;2023-03-01T03:13:54;-2.90;68.70
51559;DHT22;61650;48.882;2.092;2023-03-01T03:16:22;-2.90;69.00
51559;DHT22;61650;48.882;2.092;2023-03-01T03:18:48;-2.90;68.90
51559;DHT22;61650;48.882;2.092;2023-03-01T03:21:14;-2.90;69.30
51559;DHT22;61650;48.882;2.092;2023-03-01T03:23:40;-2.80;69.40
51559;DHT22;61650;48.882;2.092;2023-03-01T03:26:06;-3.00;68.80
51559;DHT22;61650;48.882;2.092;2023-03-01T03:28:33;-2.80;68.40
51559;DHT22;61650;48.882;2.092;2023-03-01T03:30:59;-2.80;68.10
51559;DHT22;61650;48.882;2.092;2023-03-01T03:33:29;-2.70;68.30
51559;DHT22;61650;48.882;2.092;2023-03-01T03:35:55;-2.60;67.40
51559;DHT22;61650;48.882;2.092;2023-03-01T03:38:21;-2.50;67.30
51559;DHT22;61650;48.882;2.092;2023-03-01T03:40:54;-2.40;66.80
51559;DHT22;61650;48.882;2.092;2023-03-01T03:43:26;-2.40;66.70
51559;DHT22;61650;48.882;2.092;2023-03-01T03:45:52;-2.30;66.30
51559;DHT22;61650;48.882;2.092;2023-03-01T03:48:19;-2.30;66.00
51559;DHT22;61650;48.882;2.092;2023-03-01T03:50:53;-2.20;65.60
51559;DHT22;61650;48.882;2.092;2023-03-01T03:53:20;-2.10;64.90
51559;DHT22;61650;48.882;2.092;2023-03-01T03:55:46;-2.10;65.00
51559;DHT22;61650;48.882;2.092;2023-03-01T03:58:15;-2.10;64.70
51559;DHT22;61650;48.882;2.092;2023-03-01T04:00:44;-1.90;64.60
51559;DHT22;61650;48.882;2.092;2023-03-01T04:03:11;-1.90;64.00
51559;DHT22;61650;48.882;2.092;2023-03-01T04:05:38;-1.90;63.80
51559;DHT22;61650;48.882;2.092;2023-03-01T04:08:04;-2.00;64.20
51559;DHT22;61650;48.882;2.092;2023-03-01T04:10:36;-1.90;64.10
51559;DHT22;61650;48.882;2.092;2023-03-01T04:13:03;-1.90;64.00
51559;DHT22;61650;48.882;2.092;2023-03-01T04:15:30;-1.90;63.90
51559;DHT22;61650;48.882;2.092;2023-03-01T04:17:57;-2.00;64.00
51559;DHT22;61650;48.882;2.092;2023-03-01T04:20:26;-2.00;64.30
51559;DHT22;61650;48.882;2.092;2023-03-01T04:23:00;-2.00;64.40
51559;DHT22;61650;48.882;2.092;2023-03-01T04:25:39;-2.00;64.40
51559;DHT22;61650;48.882;2.092;2023-03-01T04:28:05;-2.00;64.50
51559;DHT22;61650;48.882;2.092;2023-03-01T04:30:31;-2.00;64.50
51559;DHT22;61650;48.882;2.092;2023-03-01T04:33:02;-2.00;64.70
51559;DHT22;61650;48.882;2.092;2023-03-01T04:35:29;-2.00;64.60
51559;DHT22;61650;48.882;2.092;2023-03-01T04:37:54;-2.10;65.00
51559;DHT22;61650;48.882;2.092;2023-03-01T04:40:20;-2.10;65.60
51559;DHT22;61650;48.882;2.092;2023-03-01T04:42:46;-2.10;65.10
51559;DHT22;61650;48.882;2.092;2023-03-01T04:45:12;-2.10;65.00
51559;DHT22;61650;48.882;2.092;2023-03-01T04:47:45;-2.20;65.50
51559;DHT22;61650;48.882;2.092;2023-03-01T04:50:13;-2.20;65.10
51559;DHT22;61650;48.882;2.092;2023-03-01T04:52:39;-2.20;65.70
51559;DHT22;61650;48.882;2.092;2023-03-01T04:55:05;-2.30;65.50
51559;DHT22;61650;48.882;2.092;2023-03-01T04:57:31;-2.20;65.50
51559;DHT22;61650;48.882;2.092;2023-03-01T04:59:57;-2.30;65.80
51559;DHT22;61650;48.882;2.092;2023-03-01T05:02:23;-2.30;65.60
51559;DHT22;61650;48.882;2.092;2023-03-01T05:04:48;-2.30;65.90
51559;DHT22;61650;48.882;2.092;2023-03-01T05:07:14;-2.30;66.00
51559;DHT22;61650;48.882;2.092;2023-03-01T05:09:47;-2.30;66.20
51559;DHT22;61650;48.882;2.092;2023-03-01T05:12:14;-2.40;65.90
51559;DHT22;61650;48.882;2.092;2023-03-01T05:14:40;-2.40;66.60
51559;DHT22;61650;48.882;2.092;2023-03-01T05:17:07;-2.30;66.50
51559;DHT22;61650;48.882;2.092;2023-03-01T05:19:33;-2.40;66.60
51559;DHT22;61650;48.882;2.092;2023-03-01T05:21:59;-2.50;66.70
51559;DHT22;61650;48.882;2.092;2023-03-01T05:24:31;-2.50;67.00
51559;DHT22;61650;48.882;2.092;2023-03-01T05:26:57;-2.50;67.30
51559;DHT22;61650;48.882;2.092;2023-03-01T05:29:24;-2.50;66.80
51559;DHT22;61650;48.882;2.092;2023-03-01T05:31:55;-2.50;67.50
51559;DHT22;61650;48.882;2.092;2023-03-01T05:34:35;-2.40;67.30
51559;DHT22;61650;48.882;2.092;2023-03-01T05:37:02;-2.50;67.40
51559;DHT22;61650;48.882;2.092;2023-03-01T05:39:29;-2.40;67.10
51559;DHT22;61650;48.882;2.092;2023-03-01T05:41:57;-2.40;67.00
51559;DHT22;61650;48.882;2.092;2023-03-01T05:44:23;-2.40;66.60
51559;DHT22;61650;48.882;2.092;2023-03-01T05:46:49;-2.40;67.00
51559;DHT22;61650;48.882;2.092;2023-03-01T05:49:15;-2.40;67.20
51559;DHT22;61650;48.882;2.092;2023-03-01T05:51:42;-2.40;67.10
51559;DHT22;61650;48.882;2.092;2023-03-01T05:54:09;-2.40;67.40
51559;DHT22;61650;48.882;2.092;2023-03-01T05:56:35;-2.50;68.10
51559;DHT22;61650;48.882;2.092;2023-03-01T05:59:02;-2.50;67.90
51559;DHT22;61650;48.882;2.092;2023-03-01T06:01:28;-2.60;68.30
51559;DHT22;61650;48.882;2.092;2023-03-01T06:03:55;-2.70;68.60
51559;DHT22;61650;48.882;2.092;2023-03-01T06:06:21;-2.60;68.80
51559;DHT22;61650;48.882;2.092;2023-03-01T06:08:46;-2.60;68.80
51559;DHT22;61650;48.882;2.092;2023-03-01T06:11:12;-2.70;69.00
51559;DHT22;61650;48.882;2.092;2023-03-01T06:13:38;-2.70;68.60
51559;DHT22;61650;48.882;2.092;2023-03-01T06:16:07;-2.80;69.40
51559;DHT22;61650;48.882;2.092;2023-03-01T06:18:33;-2.90;70.10
51559;DHT22;61650;48.882;2.092;2023-03-01T06:21:00;-2.70;69.90
51559;DHT22;61650;48.882;2.092;2023-03-01T06:23:25;-2.60;69.40
51559;DHT22;61650;48.882;2.092;2023-03-01T06:25:51;-2.60;69.40
51559;DHT22;61650;48.882;2.092;2023-03-01T06:28:17;-2.60;69.10
51559;DHT22;61650;48.882;2.092;2023-03-01T06:30:43;-2.50;68.80
51559;DHT22;61650;48.882;2.092;2023-03-01T06:33:08;-2.50;69.10
51559;DHT22;61650;48.882;2.092;2023-03-01T06:35:34;-2.40;68.60
51559;DHT22;61650;48.882;2.092;2023-03-01T06:38:01;-2.40;68.60
51559;DHT22;61650;48.882;2.092;2023-03-01T06:40:28;-2.40;68.70
51559;DHT22;61650;48.882;2.092;2023-03-01T06:42:54;-2.40;68.80
51559;DHT22;61650;48.882;2.092;2023-03-01T06:45:21;-2.40;69.00
51559;DHT22;61650;48.882;2.092;2023-03-01T06:47:47;-2.50;69.10
51559;DHT22;61650;48.882;2.092;2023-03-01T06:50:13;-2.50;69.20
51559;DHT22;61650;48.882;2.092;2023-03-01T06:52:39;-2.40;69.10
51559;DHT22;61650;48.882;2.092;2023-03-01T06:55:05;-2.50;68.80
51559;DHT22;61650;48.882;2.092;2023-03-01T06:57:30;-2.50;69.60
51559;DHT22;61650;48.882;2.092;2023-03-01T06:59:56;-2.40;69.30
51559;DHT22;61650;48.882;2.092;2023-03-01T07:02:21;-2.40;68.90
51559;DHT22;61650;48.882;2.092;2023-03-01T07:04:49;-2.40;68.80
51559;DHT22;61650;48.882;2.092;2023-03-01T07:07:15;-2.30;67.80
51559;DHT22;61650;48.882;2.092;2023-03-01T07:09:41;-2.20;68.40
51559;DHT22;61650;48.882;2.092;2023-03-01T07:12:06;-2.20;68.20
51559;DHT22;61650;48.882;2.092;2023-03-01T07:14:33;-2.20;68.30
51559;DHT22;61650;48.882;2.092;2023-03-01T07:16:59;-2.20;68.10
51559;DHT22;61650;48.882;2.092;2023-03-01T07:19:24;-2.20;67.60
51559;DHT22;61650;48.882;2.092;2023-03-01T07:21:50;-2.10;68.10
51559;DHT22;61650;48.882;2.092;2023-03-01T07:24:16;-2.10;67.80
51559;DHT22;61650;48.882;2.092;2023-03-01T07:26:41;-2.10;67.90
51559;DHT22;61650;48.882;2.092;2023-03-01T07:29:07;-2.00;67.90
51559;DHT22;61650;48.882;2.092;2023-03-01T07:31:35;-2.00;67.90
51559;DHT22;61650;48.882;2.092;2023-03-01T07:34:01;-1.90;67.50
51559;DHT22;61650;48.882;2.092;2023-03-01T07:36:26;-2.00;68.00
51559;DHT22;61650;48.882;2.092;2023-03-01T07:38:52;-1.90;67.40
51559;DHT22;61650;48.882;2.092;2023-03-01T07:41:18;-1.80;67.30
51559;DHT22;61650;48.882;2.092;2023-03-01T07:43:43;-1.80;67.60
51559;DHT22;61650;48.882;2.092;2023-03-01T07:46:09;-1.70;67.70
51559;DHT22;61650;48.882;2.092;2023-03-01T07:48:35;-1.60;67.30
51559;DHT22;61650;48.882;2.092;2023-03-01T07:51:03;-1.50;67.10
51559;DHT22;61650;48.882;2.092;2023-03-01T07:53:29;-1.40;66.10
51559;DHT22;61650;48.882;2.092;2023-03-01T07:56:04;-1.30;66.20
51559;DHT22;61650;48.882;2.092;2023-03-01T07:58:30;-1.10;65.70
51559;DHT22;61650;48.882;2.092;2023-03-01T08:01:00;-1.10;65.60
51559;DHT22;61650;48.882;2.092;2023-03-01T08:03:26;-1.00;65.10
51559;DHT22;61650;48.882;2.092;2023-03-01T08:05:51;-1.00;65.00
51559;DHT22;61650;48.882;2.092;2023-03-01T08:08:17;-1.00;64.40
51559;DHT22;61650;48.882;2.092;2023-03-01T08:10:42;-0.80;64.70
51559;DHT22;61650;48.882;2.092;2023-03-01T08:13:08;-0.70;64.70
51559;DHT22;61650;48.882;2.092;2023-03-01T08:15:33;-0.60;64.10
51559;DHT22;61650;48.882;2.092;2023-03-01T08:17:59;-0.50;63.50
51559;DHT22;61650;48.882;2.092;2023-03-01T08:20:24;-0.50;63.40
51559;DHT22;61650;48.882;2.092;2023-03-01T08:22:50;-0.30;63.20
51559;DHT22;61650;48.882;2.092;2023-03-01T08:25:16;-0.20;62.50
51559;DHT22;61650;48.882;2.092;2023-03-01T08:27:41;-0.20;62.70
51559;DHT22;61650;48.882;2.092;2023-03-01T08:30:08;-0.10;62.50
51559;DHT22;61650;48.882;2.092;2023-03-01T08:32:39;0.00;62.30
51559;DHT22;61650;48.882;2.092;2023-03-01T08:35:05;0.10;61.90
51559;DHT22;61650;48.882;2.092;2023-03-01T08:37:31;0.10;61.70
51559;DHT22;61650;48.882;2.092;2023-03-01T08:39:59;0.20;61.90
51559;DHT22;61650;48.882;2.092;2023-03-01T08:42:25;0.30;61.30
51559;DHT22;61650;48.882;2.092;2023-03-01T08:44:51;0.30;61.10
51559;DHT22;61650;48.882;2.092;2023-03-01T08:47:17;0.30;61.10
51559;DHT22;61650;48.882;2.092;2023-03-01T08:49:42;0.30;61.00
51559;DHT22;61650;48.882;2.092;2023-03-01T08:52:08;0.40;61.30
51559;DHT22;61650;48.882;2.092;2023-03-01T08:54:33;0.40;60.90
51559;DHT22;61650;48.882;2.092;2023-03-01T08:57:02;0.50;61.00
51559;DHT22;61650;48.882;2.092;2023-03-01T08:59:28;0.50;60.70
51559;DHT22;61650;48.882;2.092;2023-03-01T09:01:55;0.40;60.10
51559;DHT22;61650;48.882;2.092;2023-03-01T09:04:21;0.40;60.60
51559;DHT22;61650;48.882;2.092;2023-03-01T09:06:47;0.50;60.10
51559;DHT22;61650;48.882;2.092;2023-03-01T09:09:17;0.50;60.10
51559;DHT22;61650;48.882;2.092;2023-03-01T09:11:44;0.60;60.00
51559;DHT22;61650;48.882;2.092;2023-03-01T09:14:12;0.60;60.40
51559;DHT22;61650;48.882;2.092;2023-03-01T09:16:37;0.70;60.50
51559;DHT22;61650;48.882;2.092;2023-03-01T09:19:04;0.70;59.90
51559;DHT22;61650;48.882;2.092;2023-03-01T09:21:29;0.80;60.00
51559;DHT22;61650;48.882;2.092;2023-03-01T09:23:56;0.90;59.60
51559;DHT22;61650;48.882;2.092;2023-03-01T09:26:23;0.90;59.80
51559;DHT22;61650;48.882;2.092;2023-03-01T09:28:51;1.00;59.30
51559;DHT22;61650;48.882;2.092;2023-03-01T09:31:18;1.10;59.50
51559;DHT22;61650;48.882;2.092;2023-03-01T09:33:46;1.20;59.80
51559;DHT22;61650;48.882;2.092;2023-03-01T09:36:15;1.30;58.90
51559;DHT22;61650;48.882;2.092;2023-03-01T09:38:41;1.30;58.70
51559;DHT22;61650;48.882;2.092;2023-03-01T09:46:41;1.60;57.90
51559;DHT22;61650;48.882;2.092;2023-03-01T09:49:18;1.80;58.50
51559;DHT22;61650;48.882;2.092;2023-03-01T09:51:58;1.90;57.50
51559;DHT22;61650;48.882;2.092;2023-03-01T09:54:24;1.90;57.50
51559;DHT22;61650;48.882;2.092;2023-03-01T09:57:02;1.90;56.70
51559;DHT22;61650;48.882;2.092;2023-03-01T09:59:40;1.90;56.40
51559;DHT22;61650;48.882;2.092;2023-03-01T10:02:37;1.90;55.80
51559;DHT22;61650;48.882;2.092;2023-03-01T10:08:21;2.20;56.00
51559;DHT22;61650;48.882;2.092;2023-03-01T10:10:49;2.20;55.90
51559;DHT22;61650;48.882;2.092;2023-03-01T10:13:21;2.30;55.50
51559;DHT22;61650;48.882;2.092;2023-03-01T10:15:59;2.40;54.50
51559;DHT22;61650;48.882;2.092;2023-03-01T10:18:29;2.50;55.10
51559;DHT22;61650;48.882;2.092;2023-03-01T10:21:05;2.60;54.10
51559;DHT22;61650;48.882;2.092;2023-03-01T10:23:34;2.70;53.90
51559;DHT22;61650;48.882;2.092;2023-03-01T10:28:50;2.90;54.40
51559;DHT22;61650;48.882;2.092;2023-03-01T10:31:22;3.00;53.70
51559;DHT22;61650;48.882;2.092;2023-03-01T10:33:53;3.00;52.10
51559;DHT22;61650;48.882;2.092;2023-03-01T10:36:21;2.90;52.40
51559;DHT22;61650;48.882;2.092;2023-03-01T10:38:56;2.90;52.80
51559;DHT22;61650;48.882;2.092;2023-03-01T10:41:24;2.90;53.10
51559;DHT22;61650;48.882;2.092;2023-03-01T10:43:55;3.00;52.60
51559;DHT22;61650;48.882;2.092;2023-03-01T10:46:24;3.00;52.50
51559;DHT22;61650;48.882;2.092;2023-03-01T10:51:45;3.10;52.30
51559;DHT22;61650;48.882;2.092;2023-03-01T10:54:27;3.10;51.30
51559;DHT22;61650;48.882;2.092;2023-03-01T10:57:02;3.10;50.60
51559;DHT22;61650;48.882;2.092;2023-03-01T10:59:33;3.10;51.80
51559;DHT22;61650;48.882;2.092;2023-03-01T11:04:34;3.30;50.60
51559;DHT22;61650;48.882;2.092;2023-03-01T11:07:00;3.30;51.00
51559;DHT22;61650;48.882;2.092;2023-03-01T11:09:31;3.40;51.10
51559;DHT22;61650;48.882;2.092;2023-03-01T11:12:04;3.60;50.90
51559;DHT22;61650;48.882;2.092;2023-03-01T11:14:35;3.70;50.30
51559;DHT22;61650;48.882;2.092;2023-03-01T11:17:18;3.70;50.50
51559;DHT22;61650;48.882;2.092;2023-03-01T11:22:54;3.80;49.60
51559;DHT22;61650;48.882;2.092;2023-03-01T11:25:27;3.90;50.40
51559;DHT22;61650;48.882;2.092;2023-03-01T11:27:55;4.00;49.70
51559;DHT22;61650;48.882;2.092;2023-03-01T11:33:33;4.20;49.30
51559;DHT22;61650;48.882;2.092;2023-03-01T11:38:34;4.40;48.90
51559;DHT22;61650;48.882;2.092;2023-03-01T11:41:20;4.50;48.10
51559;DHT22;61650;48.882;2.092;2023-03-01T11:43:52;4.70;48.60
51559;DHT22;61650;48.882;2.092;2023-03-01T11:51:41;4.80;47.60
51559;DHT22;61650;48.882;2.092;2023-03-01T11:54:24;4.80;45.80
51559;DHT22;61650;48.882;2.092;2023-03-01T12:00:06;4.80;46.90
51559;DHT22;61650;48.882;2.092;2023-03-01T12:03:16;5.00;47.80
51559;DHT22;61650;48.882;2.092;2023-03-01T12:09:17;5.20;47.00
51559;DHT22;61650;48.882;2.092;2023-03-01T12:17:30;6.70;43.70
51559;DHT22;61650;48.882;2.092;2023-03-01T12:28:51;6.80;43.60
51559;DHT22;61650;48.882;2.092;2023-03-01T12:31:35;6.50;43.60
51559;DHT22;61650;48.882;2.092;2023-03-01T12:34:25;6.70;43.60
51559;DHT22;61650;48.882;2.092;2023-03-01T12:39:59;8.70;41.60
51559;DHT22;61650;48.882;2.092;2023-03-01T12:45:39;9.00;40.80
51559;DHT22;61650;48.882;2.092;2023-03-01T12:50:59;9.10;39.80
51559;DHT22;61650;48.882;2.092;2023-03-01T12:53:29;8.70;39.80
51559;DHT22;61650;48.882;2.092;2023-03-01T12:56:01;8.90;41.50
51559;DHT22;61650;48.882;2.092;2023-03-01T13:17:49;7.60;39.20
51559;DHT22;61650;48.882;2.092;2023-03-01T13:20:20;7.10;41.50
51559;DHT22;61650;48.882;2.092;2023-03-01T13:22:47;6.90;41.30
51559;DHT22;61650;48.882;2.092;2023-03-01T13:25:19;7.60;41.50
51559;DHT22;61650;48.882;2.092;2023-03-01T13:27:46;7.70;40.50
51559;DHT22;61650;48.882;2.092;2023-03-01T13:35:54;6.80;42.10
51559;DHT22;61650;48.882;2.092;2023-03-01T13:41:07;7.30;41.50
51559;DHT22;61650;48.882;2.092;2023-03-01T13:43:36;7.40;41.30
51559;DHT22;61650;48.882;2.092;2023-03-01T13:46:09;7.50;41.30
51559;DHT22;61650;48.882;2.092;2023-03-01T13:48:36;7.70;41.10
51559;DHT22;61650;48.882;2.092;2023-03-01T13:51:06;7.80;41.30
51559;DHT22;61650;48.882;2.092;2023-03-01T13:53:44;7.60;40.70
51559;DHT22;61650;48.882;2.092;2023-03-01T13:58:50;8.10;40.70
51559;DHT22;61650;48.882;2.092;2023-03-01T14:01:31;8.00;41.10
51559;DHT22;61650;48.882;2.092;2023-03-01T14:03:58;8.50;40.60
51559;DHT22;61650;48.882;2.092;2023-03-01T14:06:29;8.50;40.10
51559;DHT22;61650;48.882;2.092;2023-03-01T14:09:08;8.30;40.70
51559;DHT22;61650;48.882;2.092;2023-03-01T14:11:59;8.50;40.20
51559;DHT22;61650;48.882;2.092;2023-03-01T14:19:26;9.30;38.50
51559;DHT22;61650;48.882;2.092;2023-03-01T14:24:53;10.70;37.10
51559;DHT22;61650;48.882;2.092;2023-03-01T14:27:20;11.00;36.10
51559;DHT22;61650;48.882;2.092;2023-03-01T14:30:04;11.10;36.40
51559;DHT22;61650;48.882;2.092;2023-03-01T14:32:35;11.20;36.30
51559;DHT22;61650;48.882;2.092;2023-03-01T14:35:01;10.90;35.70
51559;DHT22;61650;48.882;2.092;2023-03-01T14:37:34;11.00;36.50
51559;DHT22;61650;48.882;2.092;2023-03-01T14:40:02;11.10;35.70
51559;DHT22;61650;48.882;2.092;2023-03-01T14:42:33;11.20;36.60
51559;DHT22;61650;48.882;2.092;2023-03-01T14:45:00;11.50;35.10
51559;DHT22;61650;48.882;2.092;2023-03-01T14:47:29;11.70;35.70
51559;DHT22;61650;48.882;2.092;2023-03-01T14:50:31;11.40;36.20
51559;DHT22;61650;48.882;2.092;2023-03-01T14:52:59;11.40;35.00
51559;DHT22;61650;48.882;2.092;2023-03-01T14:55:32;11.40;34.80
51559;DHT22;61650;48.882;2.092;2023-03-01T14:58:05;11.20;36.10
51559;DHT22;61650;48.882;2.092;2023-03-01T15:00:33;11.30;35.90
51559;DHT22;61650;48.882;2.092;2023-03-01T15:03:08;11.30;36.20
51559;DHT22;61650;48.882;2.092;2023-03-01T15:05:40;10.90;35.80
51559;DHT22;61650;48.882;2.092;2023-03-01T15:08:06;10.60;36.70
51559;DHT22;61650;48.882;2.092;2023-03-01T15:10:35;10.40;36.50
51559;DHT22;61650;48.882;2.092;2023-03-01T15:13:21;9.00;38.30
51559;DHT22;61650;48.882;2.092;2023-03-01T15:15:48;8.30;40.50
51559;DHT22;61650;48.882;2.092;2023-03-01T15:18:27;7.80;41.10
51559;DHT22;61650;48.882;2.092;2023-03-01T15:20:54;7.50;42.30
51559;DHT22;61650;48.882;2.092;2023-03-01T15:23:27;7.40;42.50
51559;DHT22;61650;48.882;2.092;2023-03-01T15:25:54;7.40;42.30
51559;DHT22;61650;48.882;2.092;2023-03-01T15:28:28;7.30;42.60
51559;DHT22;61650;48.882;2.092;2023-03-01T15:31:04;7.20;42.70
51559;DHT22;61650;48.882;2.092;2023-03-01T15:33:34;7.10;43.10
51559;DHT22;61650;48.882;2.092;2023-03-01T15:36:03;7.00;42.90
51559;DHT22;61650;48.882;2.092;2023-03-01T15:38:50;7.00;43.30
51559;DHT22;61650;48.882;2.092;2023-03-01T15:41:45;6.90;42.80
51559;DHT22;61650;48.882;2.092;2023-03-01T15:44:17;6.80;42.80
51559;DHT22;61650;48.882;2.092;2023-03-01T15:46:46;6.70;43.30
51559;DHT22;61650;48.882;2.092;2023-03-01T15:49:41;6.60;43.10
51559;DHT22;61650;48.882;2.092;2023-03-01T15:52:22;6.50;43.60
51559;DHT22;61650;48.882;2.092;2023-03-01T15:55:04;6.40;43.50
51559;DHT22;61650;48.882;2.092;2023-03-01T15:57:31;6.40;43.50
51559;DHT22;61650;48.882;2.092;2023-03-01T15:59:57;6.30;43.90
51559;DHT22;61650;48.882;2.092;2023-03-01T16:02:23;6.30;44.10
51559;DHT22;61650;48.882;2.092;2023-03-01T16:04:50;6.20;44.00
51559;DHT22;61650;48.882;2.092;2023-03-01T16:07:16;6.20;44.20
51559;DHT22;61650;48.882;2.092;2023-03-01T16:09:41;6.30;43.90
51559;DHT22;61650;48.882;2.092;2023-03-01T16:12:14;6.20;43.90
51559;DHT22;61650;48.882;2.092;2023-03-01T16:14:40;6.10;43.90
51559;DHT22;61650;48.882;2.092;2023-03-01T16:17:05;6.10;44.20
51559;DHT22;61650;48.882;2.092;2023-03-01T16:19:33;6.10;44.10
51559;DHT22;61650;48.882;2.092;2023-03-01T16:21:58;6.10;44.50
51559;DHT22;61650;48.882;2.092;2023-03-01T16:24:24;6.10;44.60
51559;DHT22;61650;48.882;2.092;2023-03-01T16:26:51;6.00;44.50
51559;DHT22;61650;48.882;2.092;2023-03-01T16:29:16;6.00;45.10
51559;DHT22;61650;48.882;2.092;2023-03-01T16:31:42;6.00;44.80
51559;DHT22;61650;48.882;2.092;2023-03-01T16:34:08;5.90;45.20
51559;DHT22;61650;48.882;2.092;2023-03-01T16:36:33;5.80;45.30
51559;DHT22;61650;48.882;2.092;2023-03-01T16:38:59;5.80;45.40
51559;DHT22;61650;48.882;2.092;2023-03-01T16:41:27;5.80;45.30
51559;DHT22;61650;48.882;2.092;2023-03-01T16:43:52;5.70;45.50
51559;DHT22;61650;48.882;2.092;2023-03-01T16:46:23;5.60;46.00
51559;DHT22;61650;48.882;2.092;2023-03-01T16:48:49;5.50;46.30
51559;DHT22;61650;48.882;2.092;2023-03-01T16:51:15;5.40;46.10
51559;DHT22;61650;48.882;2.092;2023-03-01T16:53:41;5.40;46.20
51559;DHT22;61650;48.882;2.092;2023-03-01T16:56:09;5.30;46.40
51559;DHT22;61650;48.882;2.092;2023-03-01T16:58:36;5.30;46.70
51559;DHT22;61650;48.882;2.092;2023-03-01T17:01:17;5.30;46.80
51559;DHT22;61650;48.882;2.092;2023-03-01T17:03:44;5.20;46.90
51559;DHT22;61650;48.882;2.092;2023-03-01T17:06:15;5.10;47.00
51559;DHT22;61650;48.882;2.092;2023-03-01T17:08:41;5.00;47.60
51559;DHT22;61650;48.882;2.092;2023-03-01T17:11:11;5.00;47.70
51559;DHT22;61650;48.882;2.092;2023-03-01T17:13:38;4.90;47.90
51559;DHT22;61650;48.882;2.092;2023-03-01T17:16:06;4.80;48.20
51559;DHT22;61650;48.882;2.092;2023-03-01T17:18:32;4.80;48.10
51559;DHT22;61650;48.882;2.092;2023-03-01T17:20:59;4.70;48.20
51559;DHT22;61650;48.882;2.092;2023-03-01T17:23:25;4.70;48.30
51559;DHT22;61650;48.882;2.092;2023-03-01T17:25:52;4.60;48.30
51559;DHT22;61650;48.882;2.092;2023-03-01T17:28:18;4.60;48.30
51559;DHT22;61650;48.882;2.092;2023-03-01T17:30:44;4.60;48.20
51559;DHT22;61650;48.882;2.092;2023-03-01T17:33:14;4.60;48.10
51559;DHT22;61650;48.882;2.092;2023-03-01T17:35:39;4.50;48.00